Time;durP1;ratioP1;P1;durP2;ratioP2;P2;SDS_P1;SDS_P2;PMS_P1;PMS_P2;Temp;Humidity;BMP_temperature;BMP_pressure;BME280_temperature;BME280_humidity;BME280_pressure;Samples;Min_cycle;Max_cycle;Signal;HPM_P1;HPM_P2
2021/06/16 00:00:31;;;;;;;4.77;3.13;;;20.70;90.20;;;;;;5082256;28;20794;-83
2021/06/16 00:02:58;;;;;;;5.53;2.80;;;20.70;90.20;;;;;;5084204;28;20481;-83
2021/06/16 00:05:27;;;;;;;4.80;2.90;;;20.70;90.30;;;;;;5085397;28;20458;-83
2021/06/16 00:07:54;;;;;;;7.40;3.60;;;20.60;90.50;;;;;;5082128;28;20493;-84
2021/06/16 00:10:24;;;;;;;5.93;3.17;;;20.60;90.60;;;;;;5084116;28;20460;-84
2021/06/16 00:12:53;;;;;;;5.20;2.87;;;20.50;90.70;;;;;;5080432;28;20476;-83
2021/06/16 00:15:25;;;;;;;3.70;2.60;;;20.50;90.80;;;;;;5083800;28;20486;-83
2021/06/16 00:17:52;;;;;;;8.23;3.20;;;20.50;90.90;;;;;;5086573;28;20461;-83
2021/06/16 00:20:19;;;;;;;7.83;3.57;;;20.40;91.00;;;;;;5078942;28;20484;-83
2021/06/16 00:22:46;;;;;;;3.63;2.90;;;20.40;91.10;;;;;;5080834;28;20849;-82
2021/06/16 00:25:13;;;;;;;10.03;3.40;;;20.40;91.20;;;;;;5081993;28;21124;-83
2021/06/16 00:27:40;;;;;;;9.03;2.60;;;20.40;91.20;;;;;;5078555;28;21019;-83
2021/06/16 00:30:10;;;;;;;6.97;3.13;;;20.40;91.20;;;;;;5086854;28;20472;-84
2021/06/16 00:32:37;;;;;;;6.53;3.10;;;20.40;91.20;;;;;;5087285;28;20540;-84
2021/06/16 00:35:06;;;;;;;4.90;3.13;;;20.30;91.20;;;;;;5083185;28;20888;-84
2021/06/16 00:37:34;;;;;;;3.80;2.80;;;20.30;91.20;;;;;;5078714;28;20461;-84
2021/06/16 00:40:01;;;;;;;4.50;3.00;;;20.30;91.10;;;;;;5083927;28;20462;-84
2021/06/16 00:42:28;;;;;;;10.13;3.60;;;20.30;91.00;;;;;;5078059;28;20477;-83
2021/06/16 00:44:55;;;;;;;6.90;3.63;;;20.30;90.90;;;;;;5083224;28;20488;-84
2021/06/16 00:47:23;;;;;;;5.07;3.50;;;20.30;90.90;;;;;;5079641;28;20563;-84
2021/06/16 00:49:50;;;;;;;7.53;3.63;;;20.30;90.80;;;;;;5079730;28;20471;-83
2021/06/16 00:52:17;;;;;;;6.50;3.57;;;20.30;90.60;;;;;;5079412;28;20458;-84
2021/06/16 00:54:44;;;;;;;7.50;3.73;;;20.30;90.50;;;;;;5076589;28;20478;-83
2021/06/16 00:57:11;;;;;;;5.43;2.97;;;20.30;90.40;;;;;;5078000;28;20481;-84
2021/06/16 00:59:51;;;;;;;8.33;3.10;;;20.30;90.40;;;;;;5081672;28;20464;-85
2021/06/16 01:02:20;;;;;;;3.40;2.67;;;20.30;90.40;;;;;;5078997;28;20476;-84
2021/06/16 01:04:52;;;;;;;9.20;3.40;;;20.30;90.20;;;;;;5078538;28;21319;-84
2021/06/16 01:07:19;;;;;;;5.20;3.40;;;20.40;90.20;;;;;;5083269;28;20935;-84
2021/06/16 01:09:53;;;;;;;3.80;2.70;;;20.40;90.10;;;;;;5082463;28;20478;-83
2021/06/16 01:12:24;;;;;;;5.10;3.20;;;20.40;90.10;;;;;;5081638;28;20457;-85
2021/06/16 01:14:54;;;;;;;4.83;2.57;;;20.40;90.10;;;;;;5079566;28;20458;-84
2021/06/16 01:17:23;;;;;;;9.27;3.47;;;20.40;90.00;;;;;;5082918;28;20472;-84
2021/06/16 01:20:07;;;;;;;7.43;3.83;;;20.40;90.20;;;;;;5074593;28;20473;-84
2021/06/16 01:22:42;;;;;;;8.27;3.33;;;20.40;90.20;;;;;;5082082;28;20465;-84
2021/06/16 01:25:15;;;;;;;3.70;2.83;;;20.40;90.30;;;;;;5074456;28;20458;-84
2021/06/16 01:27:44;;;;;;;8.50;3.40;;;20.40;90.40;;;;;;5084153;28;20461;-84
2021/06/16 01:30:12;;;;;;;3.97;3.23;;;20.30;90.40;;;;;;5073714;28;20466;-84
2021/06/16 01:32:39;;;;;;;11.17;2.93;;;20.30;90.30;;;;;;5080442;28;20971;-83
2021/06/16 01:35:07;;;;;;;8.37;3.20;;;20.30;90.40;;;;;;5081176;28;20466;-84
2021/06/16 01:37:34;;;;;;;6.37;3.17;;;20.30;90.70;;;;;;5081969;28;20450;-85
2021/06/16 01:40:02;;;;;;;5.20;3.37;;;20.30;90.60;;;;;;5085347;28;20462;-83
2021/06/16 01:42:31;;;;;;;4.87;3.70;;;20.30;90.60;;;;;;5075900;28;20480;-84
2021/06/16 01:45:01;;;;;;;6.77;3.27;;;20.40;90.80;;;;;;5079143;28;20462;-83
2021/06/16 01:47:29;;;;;;;4.23;3.27;;;20.30;90.60;;;;;;5075914;28;20473;-83
2021/06/16 01:49:59;;;;;;;9.77;3.70;;;20.30;90.60;;;;;;5075671;28;20457;-85
2021/06/16 01:52:27;;;;;;;3.20;2.87;;;20.30;90.90;;;;;;5077920;28;20944;-84
2021/06/16 01:54:56;;;;;;;9.83;3.50;;;20.30;91.40;;;;;;5074306;28;20885;-85
2021/06/16 01:57:25;;;;;;;4.43;2.80;;;20.20;91.60;;;;;;5082039;28;20556;-85
2021/06/16 01:59:56;;;;;;;5.33;3.53;;;20.20;91.70;;;;;;5083907;28;20521;-84
2021/06/16 02:02:24;;;;;;;4.40;2.83;;;20.20;91.60;;;;;;5083885;28;20452;-85
2021/06/16 02:04:51;;;;;;;4.73;3.30;;;20.20;91.60;;;;;;5081741;28;20457;-84
2021/06/16 02:07:24;;;;;;;3.57;3.27;;;20.20;91.40;;;;;;5077215;28;20466;-84
2021/06/16 02:09:52;;;;;;;6.13;3.50;;;20.20;91.20;;;;;;5068885;28;20484;-83
2021/06/16 02:12:20;;;;;;;4.83;2.67;;;20.20;91.10;;;;;;5081824;28;21249;-84
2021/06/16 02:14:52;;;;;;;8.20;3.90;;;20.20;91.40;;;;;;5078726;28;20457;-84
2021/06/16 02:17:20;;;;;;;4.60;2.80;;;20.20;91.00;;;;;;5076648;28;20494;-83
2021/06/16 02:19:50;;;;;;;5.10;3.50;;;20.20;90.90;;;;;;5080327;28;20583;-84
2021/06/16 02:22:18;;;;;;;5.37;3.27;;;20.20;91.00;;;;;;5078544;28;20458;-84
2021/06/16 02:24:46;;;;;;;5.00;3.53;;;20.20;90.80;;;;;;5080853;28;20450;-83
2021/06/16 02:27:13;;;;;;;5.17;3.47;;;20.20;90.80;;;;;;5077389;28;20461;-84
2021/06/16 02:29:41;;;;;;;7.00;3.40;;;20.20;90.70;;;;;;5079280;28;20489;-83
2021/06/16 02:32:08;;;;;;;9.63;3.80;;;20.20;90.70;;;;;;5078462;28;20454;-84
2021/06/16 02:34:36;;;;;;;11.63;4.00;;;20.20;90.80;;;;;;5076687;28;21341;-84
2021/06/16 02:37:07;;;;;;;8.27;4.00;;;20.20;90.80;;;;;;5078194;28;20517;-84
2021/06/16 02:39:38;;;;;;;3.70;2.87;;;20.20;90.80;;;;;;5075231;28;20578;-83
2021/06/16 02:42:08;;;;;;;10.00;3.97;;;20.20;90.80;;;;;;5069078;28;20496;-84
2021/06/16 02:44:36;;;;;;;4.00;2.97;;;20.20;90.90;;;;;;5069314;28;20536;-85
2021/06/16 02:47:07;;;;;;;5.70;3.10;;;20.20;91.00;;;;;;5072000;28;20462;-83
2021/06/16 02:49:38;;;;;;;5.57;3.10;;;20.10;91.20;;;;;;5069731;28;20488;-84
2021/06/16 02:52:10;;;;;;;10.13;5.20;;;20.10;91.30;;;;;;5070091;28;20540;-84
2021/06/16 02:54:37;;;;;;;5.07;3.60;;;20.10;91.40;;;;;;5070945;28;20967;-85
2021/06/16 02:57:06;;;;;;;4.70;3.10;;;20.10;91.40;;;;;;5071359;28;20471;-84
2021/06/16 02:59:35;;;;;;;5.43;3.23;;;20.10;91.80;;;;;;5070004;28;20450;-85
2021/06/16 03:02:04;;;;;;;6.00;4.00;;;20.10;91.50;;;;;;5071087;28;20460;-83
2021/06/16 03:04:31;;;;;;;5.83;3.20;;;20.00;91.70;;;;;;5069763;28;20496;-84
2021/06/16 03:06:58;;;;;;;6.30;3.80;;;20.00;92.00;;;;;;5074130;28;20838;-84
2021/06/16 03:09:28;;;;;;;5.33;3.00;;;19.90;92.30;;;;;;5072761;28;20497;-83
2021/06/16 03:11:55;;;;;;;12.63;3.60;;;19.90;92.30;;;;;;5067561;28;21146;-84
2021/06/16 03:14:24;;;;;;;3.03;2.73;;;19.80;92.20;;;;;;5074333;28;20454;-83
2021/06/16 03:16:52;;;;;;;4.70;3.30;;;19.80;92.00;;;;;;5071413;28;20482;-85
2021/06/16 03:19:21;;;;;;;7.27;3.80;;;19.80;91.90;;;;;;5071446;28;20786;-84
2021/06/16 03:21:49;;;;;;;4.73;3.40;;;19.80;91.90;;;;;;5077448;28;20468;-84
2021/06/16 03:24:19;;;;;;;13.03;4.67;;;19.80;91.70;;;;;;5077338;28;20471;-84
2021/06/16 03:26:49;;;;;;;4.40;3.20;;;19.80;91.80;;;;;;5071491;28;20473;-84
2021/06/16 03:29:17;;;;;;;8.40;3.50;;;19.80;92.20;;;;;;5072594;28;20493;-82
2021/06/16 03:31:45;;;;;;;6.60;3.60;;;19.70;92.40;;;;;;5078427;28;21151;-84
2021/06/16 03:34:13;;;;;;;6.80;4.23;;;19.60;92.70;;;;;;5082484;28;20473;-85
2021/06/16 03:36:43;;;;;;;4.90;3.33;;;19.90;97.10;;;;;;5074253;28;20539;-83
2021/06/16 03:39:11;;;;;;;7.00;4.23;;;19.60;94.70;;;;;;5069874;28;20456;-84
2021/06/16 03:41:38;;;;;;;8.73;3.33;;;19.60;98.50;;;;;;5070741;28;20497;-83
2021/06/16 03:44:08;;;;;;;5.80;3.63;;;19.60;92.50;;;;;;5070579;28;20465;-85
2021/06/16 03:46:36;;;;;;;5.77;3.70;;;19.60;92.50;;;;;;5077477;28;20560;-84
2021/06/16 03:49:05;;;;;;;5.57;3.70;;;19.70;92.40;;;;;;5079400;28;21015;-84
2021/06/16 03:51:34;;;;;;;8.57;3.70;;;19.70;92.40;;;;;;5070100;28;20460;-84
2021/06/16 03:54:02;;;;;;;6.27;3.00;;;19.70;92.50;;;;;;5081803;28;20451;-84
2021/06/16 03:56:29;;;;;;;6.43;3.70;;;19.70;92.50;;;;;;5074798;28;20469;-85
2021/06/16 03:58:56;;;;;;;7.70;3.60;;;19.70;92.50;;;;;;5077518;28;21139;-83
2021/06/16 04:01:24;;;;;;;8.10;4.00;;;19.80;92.50;;;;;;5081218;28;20492;-83
2021/06/16 04:03:51;;;;;;;15.30;4.30;;;19.80;92.40;;;;;;5079041;28;20460;-83
2021/06/16 04:06:19;;;;;;;5.70;3.50;;;19.80;92.40;;;;;;5079265;28;20466;-84
2021/06/16 04:08:46;;;;;;;4.70;3.73;;;19.80;92.40;;;;;;5077850;28;20485;-83
2021/06/16 04:11:14;;;;;;;6.10;3.67;;;19.80;92.30;;;;;;5077321;28;20464;-85
2021/06/16 04:13:41;;;;;;;3.73;3.20;;;19.80;92.30;;;;;;5071687;28;20461;-85
2021/06/16 04:16:09;;;;;;;6.23;4.30;;;19.90;92.40;;;;;;5085333;28;20572;-84
2021/06/16 04:18:40;;;;;;;8.53;4.33;;;19.90;92.50;;;;;;5080482;28;20459;-84
2021/06/16 04:21:07;;;;;;;13.27;3.77;;;19.90;92.60;;;;;;5074454;28;20830;-85
2021/06/16 04:23:34;;;;;;;4.17;3.73;;;19.90;92.60;;;;;;5085157;28;21012;-83
2021/06/16 04:26:01;;;;;;;5.53;3.37;;;20.00;92.70;;;;;;5085799;28;20457;-85
2021/06/16 04:28:28;;;;;;;9.33;4.50;;;20.00;92.70;;;;;;5079967;28;20465;-84
2021/06/16 04:30:55;;;;;;;5.40;3.77;;;20.00;92.70;;;;;;5079362;28;20948;-83
2021/06/16 04:33:22;;;;;;;6.37;4.20;;;20.10;93.10;;;;;;5080856;28;20470;-84
2021/06/16 04:35:50;;;;;;;4.90;3.80;;;20.10;92.60;;;;;;5083894;28;20467;-84
2021/06/16 04:38:17;;;;;;;6.63;4.10;;;20.10;92.90;;;;;;5075673;28;20451;-84
2021/06/16 04:40:43;;;;;;;6.20;3.67;;;20.20;92.50;;;;;;5082377;28;20461;-84
2021/06/16 04:43:10;;;;;;;5.73;3.97;;;20.20;92.60;;;;;;5079076;28;20472;-83
2021/06/16 04:45:37;;;;;;;7.07;3.97;;;20.20;92.70;;;;;;5080429;28;20839;-84
2021/06/16 04:48:05;;;;;;;8.57;4.43;;;20.20;92.70;;;;;;5081682;28;20477;-84
2021/06/16 04:50:32;;;;;;;6.20;4.30;;;20.30;92.80;;;;;;5081309;28;20493;-83
2021/06/16 04:53:00;;;;;;;5.37;4.30;;;20.30;92.80;;;;;;5077951;28;20526;-72
2021/06/16 04:55:27;;;;;;;6.20;4.83;;;20.30;93.00;;;;;;5074488;28;20462;-72
2021/06/16 04:57:54;;;;;;;8.40;4.90;;;20.40;93.20;;;;;;5078333;28;20458;-71
2021/06/16 05:00:22;;;;;;;5.93;5.10;;;20.40;93.10;;;;;;5082825;28;20492;-72
2021/06/16 05:02:52;;;;;;;7.20;4.60;;;20.40;93.10;;;;;;5074389;28;20548;-72
2021/06/16 05:05:19;;;;;;;9.50;5.57;;;20.50;93.20;;;;;;5078036;28;20467;-72
2021/06/16 05:07:46;;;;;;;8.20;4.90;;;20.50;93.30;;;;;;5078048;28;20459;-72
2021/06/16 05:10:14;;;;;;;10.60;4.80;;;20.50;93.30;;;;;;5077563;28;20485;-72
2021/06/16 05:12:43;;;;;;;6.30;5.00;;;20.50;93.20;;;;;;5077223;28;20461;-72
2021/06/16 05:15:11;;;;;;;4.90;4.40;;;20.60;93.40;;;;;;5077096;28;20940;-72
2021/06/16 05:17:38;;;;;;;8.27;4.43;;;20.60;93.30;;;;;;5075086;28;20469;-72
2021/06/16 05:20:07;;;;;;;4.70;4.30;;;20.70;93.40;;;;;;5084063;28;20608;-71
2021/06/16 05:22:35;;;;;;;6.97;5.00;;;20.70;93.50;;;;;;5078695;28;20858;-72
2021/06/16 05:25:02;;;;;;;5.70;3.97;;;20.70;93.50;;;;;;5072321;28;20458;-72
2021/06/16 05:27:30;;;;;;;5.70;4.33;;;20.80;93.60;;;;;;5074149;28;20476;-72
2021/06/16 05:29:57;;;;;;;6.83;4.77;;;20.80;93.50;;;;;;5075819;28;20572;-72
2021/06/16 05:32:25;;;;;;;8.23;4.93;;;20.80;93.60;;;;;;5076470;28;20454;-72
2021/06/16 05:34:52;;;;;;;7.77;4.47;;;20.90;93.60;;;;;;5085207;28;20470;-72
2021/06/16 05:37:20;;;;;;;5.60;5.07;;;20.90;93.70;;;;;;5077846;28;20454;-72
2021/06/16 05:39:47;;;;;;;5.23;4.70;;;21.00;93.70;;;;;;5072149;28;20458;-72
2021/06/16 05:42:14;;;;;;;7.80;5.20;;;21.00;93.90;;;;;;5074494;28;21001;-72
2021/06/16 05:44:42;;;;;;;6.40;5.00;;;21.00;93.80;;;;;;5082096;28;20466;-72
2021/06/16 05:47:09;;;;;;;9.03;5.33;;;21.00;94.00;;;;;;5085048;28;20766;-72
2021/06/16 05:49:36;;;;;;;9.07;5.03;;;21.10;94.40;;;;;;5081042;28;21158;-72
2021/06/16 05:52:04;;;;;;;11.73;5.20;;;21.20;94.30;;;;;;5078641;28;20459;-71
2021/06/16 05:54:31;;;;;;;5.90;4.43;;;21.30;94.20;;;;;;5081589;28;20453;-71
2021/06/16 05:56:58;;;;;;;9.03;5.80;;;21.30;94.30;;;;;;5081920;28;20463;-71
2021/06/16 05:59:25;;;;;;;8.30;5.40;;;21.40;94.60;;;;;;5079192;28;20466;-71
2021/06/16 06:01:53;;;;;;;5.83;5.10;;;21.40;94.50;;;;;;5077969;28;20477;-71
2021/06/16 06:04:20;;;;;;;5.50;5.00;;;21.50;94.60;;;;;;5081199;28;20462;-71
2021/06/16 06:06:47;;;;;;;6.80;4.83;;;21.50;94.40;;;;;;5080302;28;20458;-72
2021/06/16 06:09:14;;;;;;;11.33;4.87;;;21.60;94.40;;;;;;5082362;28;21020;-71
2021/06/16 06:11:41;;;;;;;7.17;4.83;;;21.70;94.40;;;;;;5082183;28;20461;-71
2021/06/16 06:14:08;;;;;;;5.53;4.60;;;21.80;94.40;;;;;;5080445;28;20462;-71
2021/06/16 06:16:34;;;;;;;8.50;4.80;;;21.90;94.50;;;;;;5078154;28;21241;-71
2021/06/16 06:19:03;;;;;;;10.23;5.60;;;21.90;94.40;;;;;;5078837;28;21069;-71
2021/06/16 06:21:31;;;;;;;8.47;5.97;;;22.00;94.50;;;;;;5071598;28;20455;-72
2021/06/16 06:23:59;;;;;;;7.80;4.90;;;22.10;94.50;;;;;;5082164;28;20458;-71
2021/06/16 06:26:25;;;;;;;7.03;5.10;;;22.10;94.40;;;;;;5077036;28;21180;-71
2021/06/16 06:28:52;;;;;;;6.93;5.60;;;22.20;94.50;;;;;;5074951;28;20465;-71
2021/06/16 06:31:19;;;;;;;8.20;5.37;;;22.30;94.90;;;;;;5078703;28;20564;-71
2021/06/16 06:33:46;;;;;;;12.23;6.00;;;22.40;95.90;;;;;;5080770;28;20458;-71
2021/06/16 06:36:15;;;;;;;22.13;6.93;;;22.50;97.60;;;;;;5078800;28;20476;-71
2021/06/16 06:38:42;;;;;;;13.60;5.63;;;22.50;98.40;;;;;;5077448;28;20458;-71
2021/06/16 06:41:09;;;;;;;11.67;5.50;;;22.60;95.50;;;;;;5077766;28;21000;-72
2021/06/16 06:43:36;;;;;;;9.90;5.00;;;22.70;94.60;;;;;;5078845;28;20480;-85
2021/06/16 06:46:03;;;;;;;7.20;4.80;;;22.70;94.50;;;;;;5069663;28;20503;-84
2021/06/16 06:48:30;;;;;;;9.63;5.03;;;22.80;94.50;;;;;;5079997;28;20470;-84
2021/06/16 06:50:56;;;;;;;8.67;6.10;;;22.90;94.40;;;;;;5073987;28;20554;-82
2021/06/16 06:53:27;;;;;;;14.27;5.37;;;22.90;94.40;;;;;;5071087;28;20461;-84
2021/06/16 06:55:54;;;;;;;11.17;5.27;;;23.00;94.30;;;;;;5075655;28;20446;-82
2021/06/16 06:58:21;;;;;;;15.83;6.83;;;23.00;94.20;;;;;;5073472;28;20464;-85
2021/06/16 07:00:48;;;;;;;27.40;8.10;;;23.10;94.20;;;;;;5074816;28;20492;-85
2021/06/16 07:03:15;;;;;;;30.03;9.00;;;23.20;94.30;;;;;;5075835;28;20466;-84
2021/06/16 07:05:42;;;;;;;17.20;6.13;;;23.20;94.30;;;;;;5079467;28;20461;-84
2021/06/16 07:08:09;;;;;;;8.43;5.10;;;23.30;94.40;;;;;;5073399;28;20464;-84
2021/06/16 07:10:37;;;;;;;14.63;6.60;;;23.40;94.20;;;;;;5073643;28;20504;-84
2021/06/16 07:13:04;;;;;;;24.03;6.60;;;23.40;94.20;;;;;;5077470;28;20541;-85
2021/06/16 07:15:31;;;;;;;30.37;7.93;;;23.50;94.20;;;;;;5074735;28;20477;-84
2021/06/16 07:17:59;;;;;;;22.67;6.80;;;23.50;94.20;;;;;;5076856;28;20580;-85
2021/06/16 07:20:25;;;;;;;22.87;8.37;;;23.60;94.30;;;;;;5075990;28;20469;-83
2021/06/16 07:22:53;;;;;;;16.67;5.47;;;23.60;94.20;;;;;;5076494;28;20466;-83
2021/06/16 07:25:20;;;;;;;19.10;7.00;;;23.70;94.10;;;;;;5073897;28;20477;-83
2021/06/16 07:27:48;;;;;;;11.40;5.90;;;23.80;94.20;;;;;;5074620;28;20461;-83
2021/06/16 07:30:16;;;;;;;12.40;5.80;;;23.90;94.50;;;;;;5082341;28;20576;-83
2021/06/16 07:32:44;;;;;;;14.57;6.30;;;24.00;98.20;;;;;;5069285;28;20461;-84
2021/06/16 07:35:13;;;;;;;18.90;6.30;;;24.10;94.60;;;;;;5072128;28;20497;-84
2021/06/16 07:37:41;;;;;;;24.87;5.57;;;24.20;94.50;;;;;;5073369;28;20467;-85
2021/06/16 07:40:10;;;;;;;12.73;5.50;;;24.30;94.50;;;;;;5064136;28;20540;-83
2021/06/16 07:42:37;;;;;;;17.30;5.27;;;24.40;94.50;;;;;;5064082;28;21079;-84
2021/06/16 07:45:07;;;;;;;8.97;5.50;;;24.50;94.50;;;;;;5069161;28;20552;-82
2021/06/16 07:47:34;;;;;;;7.97;5.40;;;24.60;94.30;;;;;;5074954;28;20465;-83
2021/06/16 07:50:01;;;;;;;6.03;5.10;;;24.70;94.40;;;;;;5074820;28;20486;-84
2021/06/16 07:52:28;;;;;;;12.70;5.47;;;24.80;94.50;;;;;;5074321;28;20473;-84
2021/06/16 07:54:55;;;;;;;10.00;6.40;;;24.90;94.40;;;;;;5071836;28;20462;-84
2021/06/16 07:57:22;;;;;;;6.20;5.60;;;24.90;94.20;;;;;;5072715;28;20497;-84
2021/06/16 07:59:49;;;;;;;11.03;5.93;;;25.00;94.40;;;;;;5070630;28;20494;-84
2021/06/16 08:02:18;;;;;;;11.57;4.57;;;25.10;94.30;;;;;;5069597;28;20489;-85
2021/06/16 08:04:45;;;;;;;16.43;5.77;;;25.20;94.20;;;;;;5071227;28;20466;-84
2021/06/16 08:07:13;;;;;;;12.70;4.90;;;25.30;94.10;;;;;;5080393;28;20965;-84
2021/06/16 08:09:41;;;;;;;7.37;5.90;;;25.40;94.00;;;;;;5075152;28;20461;-83
2021/06/16 08:12:09;;;;;;;11.77;6.07;;;25.40;94.00;;;;;;5071709;28;20465;-84
2021/06/16 08:14:37;;;;;;;12.27;6.03;;;25.50;94.10;;;;;;5073902;28;20488;-86
2021/06/16 08:17:05;;;;;;;7.93;5.30;;;25.60;94.10;;;;;;5075614;28;20561;-85
2021/06/16 08:19:34;;;;;;;12.87;6.30;;;25.70;94.20;;;;;;5073058;28;20506;-85
2021/06/16 08:22:01;;;;;;;13.10;7.30;;;25.80;94.10;;;;;;5069661;28;20465;-85
2021/06/16 08:24:28;;;;;;;16.93;6.13;;;25.90;94.00;;;;;;5072622;28;20834;-84
2021/06/16 08:26:55;;;;;;;7.77;5.70;;;26.00;94.00;;;;;;5076194;28;20460;-84
2021/06/16 08:29:23;;;;;;;8.97;5.37;;;26.10;94.00;;;;;;5075885;28;20497;-84
2021/06/16 08:31:50;;;;;;;9.70;6.50;;;26.20;93.90;;;;;;5072031;28;20493;-85
2021/06/16 08:34:16;;;;;;;10.13;6.30;;;26.30;93.80;;;;;;5069396;28;20478;-84
2021/06/16 08:36:46;;;;;;;12.70;6.20;;;26.40;93.70;;;;;;5083309;28;20547;-83
2021/06/16 08:39:13;;;;;;;15.13;6.17;;;26.50;93.80;;;;;;5066596;28;20549;-85
2021/06/16 08:41:41;;;;;;;13.70;6.10;;;26.60;94.00;;;;;;5078496;28;20461;-85
2021/06/16 08:44:09;;;;;;;8.80;6.27;;;26.60;93.90;;;;;;5074095;28;20454;-84
2021/06/16 08:46:36;;;;;;;10.23;6.80;;;26.70;93.70;;;;;;5078108;28;20583;-84
2021/06/16 08:49:04;;;;;;;11.80;6.70;;;26.80;93.50;;;;;;5073961;28;20843;-84
2021/06/16 08:51:31;;;;;;;7.50;5.83;;;26.90;93.30;;;;;;5065336;28;20495;-84
2021/06/16 08:54:00;;;;;;;10.77;6.23;;;27.00;93.40;;;;;;5074250;28;20663;-84
2021/06/16 08:56:27;;;;;;;6.57;5.50;;;27.10;93.60;;;;;;5070661;28;20475;-83
2021/06/16 08:58:55;;;;;;;8.90;5.97;;;27.20;93.70;;;;;;5074330;28;20468;-84
2021/06/16 09:01:22;;;;;;;7.60;6.43;;;27.30;93.50;;;;;;5072128;28;20488;-85
2021/06/16 09:03:49;;;;;;;13.17;6.97;;;27.40;93.70;;;;;;5078662;28;20458;-85
2021/06/16 09:06:17;;;;;;;7.23;6.40;;;27.50;93.30;;;;;;5072356;28;20987;-84
2021/06/16 09:08:53;;;;;;;9.00;5.93;;;27.60;93.60;;;;;;5072489;28;20469;-83
2021/06/16 09:11:22;;;;;;;8.67;6.40;;;27.60;92.90;;;;;;5079310;28;20481;-85
2021/06/16 09:13:50;;;;;;;7.57;6.50;;;27.60;93.00;;;;;;5077089;28;20542;-84
2021/06/16 09:16:29;;;;;;;7.07;6.40;;;27.70;93.30;;;;;;5073337;28;20511;-84
2021/06/16 09:18:57;;;;;;;9.57;6.73;;;27.90;93.10;;;;;;5073663;28;20844;-84
2021/06/16 09:21:38;;;;;;;28.33;7.53;;;27.90;92.80;;;;;;5072743;28;20853;-84
2021/06/16 09:24:05;;;;;;;35.43;9.10;;;28.10;92.90;;;;;;5075341;28;20464;-84
2021/06/16 09:26:35;;;;;;;110.50;15.27;;;28.20;92.80;;;;;;5072540;28;20465;-84
2021/06/16 09:29:02;;;;;;;10.40;6.80;;;28.30;92.80;;;;;;5072609;28;20466;-85
2021/06/16 09:31:36;;;;;;;9.10;6.47;;;28.30;92.40;;;;;;5067857;28;20552;-85
2021/06/16 09:34:07;;;;;;;10.83;6.47;;;28.50;92.50;;;;;;5068556;28;20466;-85
2021/06/16 09:36:46;;;;;;;6.77;6.17;;;28.60;92.60;;;;;;5079058;28;20474;-84
2021/06/16 09:39:13;;;;;;;7.83;6.90;;;28.70;92.50;;;;;;5079317;28;21246;-84
2021/06/16 09:41:53;;;;;;;11.40;5.63;;;28.90;92.20;;;;;;5072518;28;20517;-85
2021/06/16 09:44:42;;;;;;;10.30;5.70;;;29.00;92.10;;;;;;5076646;28;20458;-84
2021/06/16 09:47:15;;;;;;;8.70;6.93;;;29.10;92.00;;;;;;5071589;28;20523;-84
2021/06/16 09:49:51;;;;;;;7.73;5.60;;;29.20;91.80;;;;;;5073233;28;20467;-85
2021/06/16 09:52:35;;;;;;;8.13;6.13;;;29.20;91.40;;;;;;5077619;28;21050;-85
2021/06/16 09:55:04;;;;;;;9.20;6.53;;;29.20;91.20;;;;;;5075007;28;20470;-84
2021/06/16 09:57:33;;;;;;;7.80;6.60;;;29.10;90.70;;;;;;5076607;28;20470;-85
2021/06/16 10:00:02;;;;;;;8.50;7.60;;;29.00;91.20;;;;;;5073567;28;21179;-84
2021/06/16 10:02:31;;;;;;;17.13;7.17;;;29.10;91.40;;;;;;5070144;28;20463;-84
2021/06/16 10:04:59;;;;;;;8.30;6.63;;;29.20;91.50;;;;;;5077872;28;21005;-84
2021/06/16 10:07:27;;;;;;;7.40;6.40;;;29.30;91.20;;;;;;5081321;28;20462;-84
2021/06/16 10:09:57;;;;;;;7.47;6.40;;;29.40;91.00;;;;;;5075013;28;21053;-85
2021/06/16 10:12:26;;;;;;;11.37;6.50;;;29.50;91.10;;;;;;5070274;28;20494;-84
2021/06/16 10:14:55;;;;;;;15.20;7.50;;;29.60;91.00;;;;;;5076317;28;20466;-84
2021/06/16 10:17:22;;;;;;;13.73;6.53;;;29.70;90.80;;;;;;5071368;28;20487;-83
2021/06/16 10:19:50;;;;;;;9.83;6.67;;;29.80;90.70;;;;;;5070526;28;21003;-82
2021/06/16 10:22:18;;;;;;;17.97;7.70;;;29.80;90.60;;;;;;5076713;28;20458;-82
2021/06/16 10:24:45;;;;;;;8.03;6.47;;;29.90;90.60;;;;;;5076450;28;20461;-83
2021/06/16 10:27:16;;;;;;;14.40;7.20;;;30.00;90.60;;;;;;5070410;28;20730;-83
2021/06/16 10:29:45;;;;;;;14.97;7.33;;;30.10;90.70;;;;;;5057727;28;20871;-83
2021/06/16 10:32:14;;;;;;;7.20;6.60;;;30.30;90.50;;;;;;5072443;28;20482;-82
2021/06/16 10:34:58;;;;;;;11.83;7.77;;;30.40;89.30;;;;;;5070899;28;20477;-83
2021/06/16 10:37:27;;;;;;;11.53;7.90;;;30.40;88.50;;;;;;5076832;28;20482;-83
2021/06/16 10:40:34;;;;;;;11.97;7.00;;;30.50;88.30;;;;;;5077201;28;20760;-82
2021/06/16 10:43:17;;;;;;;10.50;6.00;;;30.60;88.20;;;;;;5064120;28;20466;-82
2021/06/16 10:45:55;;;;;;;8.00;7.07;;;30.50;87.90;;;;;;5064521;28;20454;-82
2021/06/16 10:48:41;;;;;;;13.80;7.80;;;30.40;88.00;;;;;;5072104;28;20471;-84
2021/06/16 10:51:08;;;;;;;13.60;7.77;;;30.40;87.60;;;;;;5073693;28;21035;-84
2021/06/16 10:53:35;;;;;;;9.83;7.60;;;30.50;88.60;;;;;;5070180;28;20464;-83
2021/06/16 10:56:08;;;;;;;15.10;7.40;;;30.60;88.60;;;;;;5073026;28;20488;-83
2021/06/16 10:58:45;;;;;;;16.23;7.63;;;30.70;88.20;;;;;;5070357;28;20473;-83
2021/06/16 11:01:14;;;;;;;13.80;8.30;;;30.80;87.70;;;;;;5072827;28;20563;-83
2021/06/16 11:04:05;;;;;;;11.00;6.93;;;30.90;88.30;;;;;;5068588;28;20450;-88
2021/06/16 11:06:42;;;;;;;17.93;7.50;;;31.00;88.00;;;;;;5077040;28;20467;-84
2021/06/16 11:09:10;;;;;;;10.03;6.80;;;31.10;88.10;;;;;;5077160;28;20470;-86
2021/06/16 11:12:06;;;;;;;17.03;7.17;;;31.20;87.80;;;;;;5069845;28;20454;-81
2021/06/16 11:14:49;;;;;;;12.90;8.27;;;31.20;87.50;;;;;;5075387;28;20498;-84
2021/06/16 11:17:42;;;;;;;9.13;6.60;;;31.30;88.00;;;;;;5074367;28;20477;-84
2021/06/16 11:20:14;;;;;;;13.10;7.03;;;31.40;88.10;;;;;;5069962;28;20464;-83
2021/06/16 11:22:47;;;;;;;15.60;7.50;;;31.50;88.00;;;;;;5072739;28;20864;-82
2021/06/16 11:25:28;;;;;;;13.40;6.97;;;31.60;87.90;;;;;;5072162;28;20461;-82
2021/06/16 11:28:03;;;;;;;12.63;8.30;;;31.60;88.00;;;;;;5073573;28;20462;-81
2021/06/16 11:30:35;;;;;;;10.30;7.10;;;31.70;88.20;;;;;;5066221;28;20589;-83
2021/06/16 11:33:25;;;;;;;9.03;6.77;;;31.80;87.80;;;;;;5074844;28;20466;-82
2021/06/16 11:35:59;;;;;;;11.03;6.07;;;31.90;86.20;;;;;;5071214;28;20465;-82
2021/06/16 11:38:31;;;;;;;8.60;5.87;;;32.00;86.50;;;;;;5070506;28;20473;-82
2021/06/16 11:41:01;;;;;;;10.33;7.13;;;32.10;86.80;;;;;;5071065;28;20530;-81
2021/06/16 11:43:37;;;;;;;9.27;6.10;;;32.20;86.20;;;;;;5073483;28;20800;-81
2021/06/16 11:46:06;;;;;;;10.30;5.70;;;32.30;85.70;;;;;;5076218;28;20556;-82
2021/06/16 11:48:33;;;;;;;8.00;6.33;;;32.40;85.20;;;;;;5065263;28;20561;-81
2021/06/16 11:51:02;;;;;;;14.33;6.17;;;32.50;85.40;;;;;;5071449;28;20465;-81
2021/06/16 11:53:31;;;;;;;7.07;6.37;;;32.60;85.10;;;;;;5072832;28;20464;-81
2021/06/16 11:56:02;;;;;;;9.77;6.63;;;32.70;85.00;;;;;;5073380;28;20971;-81
2021/06/16 11:58:31;;;;;;;8.73;6.20;;;32.80;85.00;;;;;;5070178;28;20515;-81
2021/06/16 12:01:06;;;;;;;8.93;6.20;;;32.90;84.70;;;;;;5070561;28;20490;-81
2021/06/16 12:03:34;;;;;;;9.10;5.60;;;33.00;83.70;;;;;;5076441;28;20491;-81
2021/06/16 12:06:04;;;;;;;6.20;5.60;;;33.00;83.70;;;;;;5078339;28;20543;-82
2021/06/16 12:08:31;;;;;;;9.30;6.50;;;33.00;83.30;;;;;;5068444;28;20467;-81
2021/06/16 12:10:58;;;;;;;6.73;5.73;;;33.10;83.30;;;;;;5068659;28;21076;-81
2021/06/16 12:13:25;;;;;;;8.77;5.80;;;33.10;83.20;;;;;;5070034;28;20489;-81
2021/06/16 12:15:52;;;;;;;11.37;6.40;;;33.10;83.40;;;;;;5069619;28;20482;-81
2021/06/16 12:18:20;;;;;;;6.63;6.03;;;33.20;84.20;;;;;;5071988;28;20505;-81
2021/06/16 12:20:48;;;;;;;6.83;5.80;;;33.10;84.70;;;;;;5074702;28;20469;-82
2021/06/16 12:23:28;;;;;;;6.80;5.80;;;33.20;83.80;;;;;;5074720;28;20503;-82
2021/06/16 12:26:14;;;;;;;5.73;5.00;;;33.30;82.60;;;;;;5072798;28;20490;-82
2021/06/16 12:28:43;;;;;;;6.33;5.73;;;33.30;82.20;;;;;;5069217;28;20461;-82
2021/06/16 12:31:14;;;;;;;7.17;5.90;;;33.40;82.50;;;;;;5069472;28;20481;-82
2021/06/16 12:33:47;;;;;;;8.37;5.23;;;33.50;82.20;;;;;;5070721;28;20987;-81
2021/06/16 12:36:19;;;;;;;7.60;6.70;;;33.40;82.50;;;;;;5079911;28;21269;-81
2021/06/16 12:38:51;;;;;;;7.40;6.50;;;33.50;83.00;;;;;;5072371;28;20806;-82
2021/06/16 12:41:23;;;;;;;8.90;6.00;;;33.50;84.40;;;;;;5084530;28;20905;-81
2021/06/16 12:43:51;;;;;;;8.23;6.50;;;33.40;84.70;;;;;;5072561;28;20450;-82
2021/06/16 12:46:18;;;;;;;6.93;6.13;;;33.40;84.30;;;;;;5078160;28;21102;-81
2021/06/16 12:48:45;;;;;;;10.53;5.93;;;33.40;84.40;;;;;;5071034;28;20462;-81
2021/06/16 12:51:12;;;;;;;8.00;5.77;;;33.40;84.50;;;;;;5075909;28;20465;-80
2021/06/16 12:53:40;;;;;;;6.73;6.03;;;33.50;83.20;;;;;;5073038;28;20458;-81